createdAt,value
2023-01-13T00:00:38.537Z,10.40
2023-01-13T00:03:07.560Z,10.50
2023-01-13T00:05:38.452Z,10.40
2023-01-13T00:08:07.511Z,10.40
2023-01-13T00:10:36.693Z,10.40
2023-01-13T00:13:06.815Z,10.40
2023-01-13T00:15:35.083Z,10.40
2023-01-13T00:18:03.265Z,10.40
2023-01-13T00:20:31.390Z,10.40
2023-01-13T00:23:00.291Z,10.30
2023-01-13T00:25:28.501Z,10.20
2023-01-13T00:27:58.001Z,10.20
2023-01-13T00:30:27.553Z,10.10
2023-01-13T00:32:55.772Z,10.20
2023-01-13T00:35:23.973Z,10.20
2023-01-13T00:37:52.132Z,10.10
2023-01-13T00:40:20.441Z,10.20
2023-01-13T00:43:06.499Z,10.20
2023-01-13T00:45:36.062Z,10.10
2023-01-13T00:48:04.667Z,10.10
2023-01-13T00:50:32.858Z,10.00
2023-01-13T00:53:01.608Z,10.00
2023-01-13T00:55:32.453Z,10.10
2023-01-13T00:58:03.823Z,10.10
2023-01-13T01:00:32.805Z,10.00
2023-01-13T01:03:02.464Z,10.00
2023-01-13T01:05:30.683Z,10.00
2023-01-13T01:07:58.855Z,10.00
2023-01-13T01:10:27.263Z,10.10
2023-01-13T01:12:55.437Z,10.10
2023-01-13T01:15:23.650Z,10.20
2023-01-13T01:17:51.877Z,10.20
2023-01-13T01:20:21.501Z,10.30
2023-01-13T01:22:49.733Z,10.40
2023-01-13T01:25:18.018Z,10.40
2023-01-13T01:27:46.196Z,10.40
2023-01-13T01:30:15.584Z,10.40
2023-01-13T01:32:43.841Z,10.50
2023-01-13T01:35:12.238Z,10.50
2023-01-13T01:37:41.769Z,10.60
2023-01-13T01:40:11.573Z,10.60
2023-01-13T01:42:57.406Z,10.60
2023-01-13T01:45:27.948Z,10.70
2023-01-13T01:48:00.222Z,10.70
2023-01-13T01:50:29.804Z,10.60
2023-01-13T01:53:05.808Z,10.60
2023-01-13T01:55:37.861Z,10.60
2023-01-13T01:58:10.052Z,10.50
2023-01-13T02:00:38.364Z,10.50
2023-01-13T02:03:08.391Z,10.50
2023-01-13T02:05:36.777Z,10.40
2023-01-13T02:08:06.853Z,10.40
2023-01-13T02:10:35.202Z,10.40
2023-01-13T02:13:06.688Z,10.40
2023-01-13T02:15:42.351Z,10.50
2023-01-13T02:18:23.137Z,10.50
2023-01-13T02:21:09.917Z,10.60
2023-01-13T02:24:29.066Z,10.50
2023-01-13T02:27:25.834Z,10.50
2023-01-13T02:30:23.678Z,10.60
2023-01-13T02:33:01.885Z,10.60
2023-01-13T02:35:37.869Z,10.50
2023-01-13T02:38:07.404Z,10.50
2023-01-13T02:40:41.950Z,10.50
2023-01-13T02:43:33.282Z,10.50
2023-01-13T02:46:08.943Z,10.50
2023-01-13T02:48:39.327Z,10.50
2023-01-13T02:51:11.280Z,10.60
2023-01-13T02:53:44.360Z,10.60
2023-01-13T02:56:15.522Z,10.60
2023-01-13T02:58:46.656Z,10.60
2023-01-13T03:01:16.113Z,10.60
2023-01-13T03:03:44.597Z,10.60
2023-01-13T03:06:30.039Z,10.50
2023-01-13T03:09:05.284Z,10.50
2023-01-13T03:11:40.122Z,10.40
2023-01-13T03:14:20.613Z,10.40
2023-01-13T03:17:06.289Z,10.50
2023-01-13T03:19:40.124Z,10.50
2023-01-13T03:22:18.621Z,10.50
2023-01-13T03:24:51.573Z,10.50
2023-01-13T03:27:26.522Z,10.50
2023-01-13T03:29:59.454Z,10.50
2023-01-13T03:32:31.797Z,10.60
2023-01-13T03:35:05.624Z,10.60
2023-01-13T03:37:37.006Z,10.60
2023-01-13T03:40:09.780Z,10.50
2023-01-13T03:42:39.364Z,10.50
2023-01-13T03:45:12.560Z,10.60
2023-01-13T03:47:46.468Z,10.50
2023-01-13T03:50:18.401Z,10.60
2023-01-13T03:52:50.827Z,10.60
2023-01-13T03:55:21.867Z,10.50
2023-01-13T03:57:54.180Z,10.50
2023-01-13T04:00:27.131Z,10.50
2023-01-13T04:03:01.911Z,10.50
2023-01-13T04:05:30.982Z,10.40
2023-01-13T04:08:03.818Z,10.50
2023-01-13T04:10:49.919Z,10.50
2023-01-13T04:13:21.299Z,10.50
2023-01-13T04:15:51.105Z,10.40
2023-01-13T04:18:23.583Z,10.40
2023-01-13T04:20:53.661Z,10.30
2023-01-13T04:23:22.768Z,10.20
2023-01-13T04:25:51.661Z,10.20
2023-01-13T04:28:20.141Z,10.30
2023-01-13T04:30:49.074Z,10.30
2023-01-13T04:33:20.271Z,10.40
2023-01-13T04:35:49.111Z,10.40
2023-01-13T04:38:18.749Z,10.40
2023-01-13T04:40:47.256Z,10.40
2023-01-13T04:43:15.701Z,10.50
2023-01-13T04:45:43.994Z,10.50
2023-01-13T04:48:12.578Z,10.50
2023-01-13T04:50:42.720Z,10.50
2023-01-13T04:53:10.752Z,10.40
2023-01-13T04:55:38.790Z,10.40
2023-01-13T04:58:09.001Z,10.40
2023-01-13T05:00:38.000Z,10.40
2023-01-13T05:03:06.258Z,10.50
2023-01-13T05:05:34.413Z,10.50
2023-01-13T05:08:03.845Z,10.60
2023-01-13T05:10:32.130Z,10.50
2023-01-13T05:13:20.102Z,10.40
2023-01-13T05:16:17.171Z,10.30
2023-01-13T05:18:45.742Z,10.30
2023-01-13T05:21:27.717Z,10.40
2023-01-13T05:24:14.545Z,10.40
2023-01-13T05:26:42.799Z,10.40
2023-01-13T05:29:10.828Z,10.40
2023-01-13T05:31:38.816Z,10.40
2023-01-13T05:34:07.033Z,10.40
2023-01-13T05:36:35.098Z,10.50
2023-01-13T05:39:05.344Z,10.50
2023-01-13T05:41:51.092Z,10.50
2023-01-13T05:44:19.074Z,10.50
2023-01-13T05:46:47.181Z,10.50
2023-01-13T05:49:15.221Z,10.40
2023-01-13T05:51:43.183Z,10.40
2023-01-13T05:54:12.602Z,10.30
2023-01-13T05:56:40.644Z,10.20
2023-01-13T05:59:08.714Z,10.10
2023-01-13T06:01:37.241Z,10.10
2023-01-13T06:04:05.594Z,10.10
2023-01-13T06:06:33.644Z,10.10
2023-01-13T06:09:03.260Z,10.10
2023-01-13T06:11:32.671Z,10.10
2023-01-13T06:14:03.559Z,10.10
2023-01-13T06:16:36.461Z,10.10
2023-01-13T06:19:09.295Z,10.10
2023-01-13T06:21:37.581Z,10.10
2023-01-13T06:24:06.515Z,10.20
2023-01-13T06:26:39.079Z,10.20
2023-01-13T06:29:08.331Z,10.20
2023-01-13T06:31:40.057Z,10.10
2023-01-13T06:34:12.015Z,10.30
2023-01-13T06:36:43.382Z,10.20
2023-01-13T06:39:14.857Z,10.20
2023-01-13T06:42:01.858Z,10.10
2023-01-13T06:44:30.325Z,10.00
2023-01-13T06:46:58.513Z,10.00
2023-01-13T06:49:26.620Z,9.90
2023-01-13T06:51:54.701Z,10.20
2023-01-13T06:54:22.821Z,10.10
2023-01-13T06:56:52.396Z,10.20
2023-01-13T06:59:20.422Z,10.10
2023-01-13T07:01:48.598Z,10.10
2023-01-13T07:04:16.732Z,10.00
2023-01-13T07:06:44.734Z,10.00
2023-01-13T07:09:12.820Z,10.00
2023-01-13T07:11:40.831Z,10.10
2023-01-13T07:14:27.535Z,10.00
2023-01-13T07:16:55.582Z,10.00
2023-01-13T07:19:24.224Z,9.90
2023-01-13T07:21:52.740Z,10.10
2023-01-13T07:24:22.461Z,10.10
2023-01-13T07:26:52.383Z,10.10
2023-01-13T07:29:21.916Z,10.00
2023-01-13T07:31:50.559Z,10.10
2023-01-13T07:34:18.821Z,10.10
2023-01-13T07:36:46.826Z,10.10
2023-01-13T07:39:14.870Z,10.10
2023-01-13T07:42:00.690Z,10.30
2023-01-13T07:44:30.049Z,10.30
2023-01-13T07:46:58.022Z,10.40
2023-01-13T07:49:26.083Z,10.30
2023-01-13T07:51:54.086Z,10.30
2023-01-13T07:54:39.014Z,10.40
2023-01-13T07:57:07.609Z,10.40
2023-01-13T07:59:37.028Z,10.50
2023-01-13T08:02:05.218Z,10.60
2023-01-13T08:04:33.371Z,10.70
2023-01-13T08:07:01.374Z,10.80
2023-01-13T08:09:29.370Z,10.80
2023-01-13T08:12:11.333Z,10.90
2023-01-13T08:14:40.814Z,10.90
2023-01-13T08:17:09.169Z,11.00
2023-01-13T08:19:37.256Z,10.90
2023-01-13T08:22:05.345Z,10.70
2023-01-13T08:24:33.397Z,10.70
2023-01-13T08:27:01.407Z,10.80
2023-01-13T08:29:29.450Z,10.90
2023-01-13T08:31:58.746Z,11.00
2023-01-13T08:34:26.809Z,11.00
2023-01-13T08:36:54.860Z,10.80
2023-01-13T08:39:24.234Z,10.60
2023-01-13T08:41:58.583Z,10.40
2023-01-13T08:44:28.096Z,10.10
2023-01-13T08:46:57.829Z,9.90
2023-01-13T08:49:26.817Z,9.80
2023-01-13T08:51:55.029Z,9.80
2023-01-13T08:54:23.092Z,9.80
2023-01-13T08:56:51.315Z,9.90
2023-01-13T08:59:21.006Z,9.90
2023-01-13T09:01:49.121Z,10.00
2023-01-13T09:04:21.218Z,10.00
2023-01-13T09:06:49.760Z,10.00
2023-01-13T09:09:18.036Z,9.90
2023-01-13T09:12:06.107Z,9.80
2023-01-13T09:14:36.021Z,9.60
2023-01-13T09:17:04.392Z,9.30
2023-01-13T09:19:33.874Z,9.10
2023-01-13T09:22:01.937Z,8.90
2023-01-13T09:24:30.124Z,8.80
2023-01-13T09:26:58.252Z,8.70
2023-01-13T09:29:26.796Z,8.60
2023-01-13T09:31:54.834Z,8.60
2023-01-13T09:34:40.200Z,8.60
2023-01-13T09:37:09.862Z,8.50
2023-01-13T09:39:39.637Z,8.60
2023-01-13T09:42:35.110Z,8.60
2023-01-13T09:45:07.477Z,8.80
2023-01-13T09:47:41.110Z,9.00
2023-01-13T09:50:25.667Z,9.20
2023-01-13T09:52:55.208Z,9.20
2023-01-13T09:55:28.817Z,9.20
2023-01-13T09:57:57.072Z,9.20
2023-01-13T10:00:28.689Z,9.20
2023-01-13T10:03:14.669Z,9.20
2023-01-13T10:05:46.537Z,9.30
2023-01-13T10:08:23.044Z,9.40
2023-01-13T10:10:53.698Z,9.30
2023-01-13T10:13:24.137Z,9.20
2023-01-13T10:16:18.749Z,9.20
2023-01-13T10:19:04.570Z,9.20
2023-01-13T10:21:56.430Z,9.20
2023-01-13T10:24:34.352Z,9.30
2023-01-13T10:27:05.719Z,9.30
2023-01-13T10:29:34.644Z,9.20
2023-01-13T10:32:02.752Z,9.20
2023-01-13T10:34:30.791Z,9.20
2023-01-13T10:37:01.720Z,9.30
2023-01-13T10:39:40.337Z,9.30
2023-01-13T10:42:14.870Z,9.40
2023-01-13T10:44:50.980Z,9.40
2023-01-13T10:47:25.244Z,9.40
2023-01-13T10:50:19.266Z,9.50
2023-01-13T10:53:02.065Z,9.50
2023-01-13T10:55:33.742Z,9.30
2023-01-13T10:58:14.887Z,9.20
2023-01-13T11:00:42.980Z,9.10
2023-01-13T11:03:20.037Z,9.10
2023-01-13T11:05:53.046Z,9.00
2023-01-13T11:08:23.247Z,8.90
2023-01-13T11:10:55.293Z,8.80
2023-01-13T11:13:31.197Z,8.70
2023-01-13T11:16:04.562Z,8.70
2023-01-13T11:18:43.559Z,8.60
2023-01-13T11:21:20.958Z,8.50
2023-01-13T11:23:57.704Z,8.50
2023-01-13T11:26:34.354Z,8.50
2023-01-13T11:29:06.976Z,8.50
2023-01-13T11:31:39.628Z,8.50
2023-01-13T11:34:15.192Z,8.40
2023-01-13T11:36:47.441Z,8.30
2023-01-13T11:39:22.214Z,8.30
2023-01-13T11:42:10.527Z,8.30
2023-01-13T11:44:43.820Z,8.10
2023-01-13T11:47:13.838Z,8.10
2023-01-13T11:49:45.371Z,8.20
2023-01-13T11:52:20.264Z,8.40
2023-01-13T11:55:04.290Z,8.50
2023-01-13T11:57:47.814Z,8.50
2023-01-13T12:00:33.698Z,8.40
2023-01-13T12:03:21.340Z,8.50
2023-01-13T12:06:02.997Z,8.50
2023-01-13T12:08:47.672Z,8.50
2023-01-13T12:11:22.462Z,8.50
2023-01-13T12:14:08.927Z,8.40
2023-01-13T12:16:43.261Z,8.40
2023-01-13T12:19:25.564Z,8.20
2023-01-13T12:22:08.559Z,8.20
2023-01-13T12:24:41.954Z,8.30
2023-01-13T12:27:15.125Z,8.40
2023-01-13T12:29:45.474Z,8.60
2023-01-13T12:32:19.177Z,8.70
2023-01-13T12:35:02.894Z,8.70
2023-01-13T12:37:38.224Z,8.70
2023-01-13T12:40:22.522Z,8.70
2023-01-13T12:43:14.162Z,8.90
2023-01-13T12:45:43.664Z,9.20
2023-01-13T12:48:49.245Z,9.30
2023-01-13T12:51:25.183Z,9.50
2023-01-13T12:53:54.769Z,9.40
2023-01-13T12:56:44.393Z,9.30
2023-01-13T12:59:49.182Z,9.30
2023-01-13T13:02:37.654Z,9.30
2023-01-13T13:05:47.911Z,9.30
2023-01-13T13:08:21.885Z,9.30
2023-01-13T13:11:07.501Z,9.30
2023-01-13T13:13:43.500Z,9.30
2023-01-13T13:16:38.056Z,9.40
2023-01-13T13:19:45.812Z,9.40
2023-01-13T13:22:38.953Z,9.50
2023-01-13T13:25:27.400Z,9.50
2023-01-13T13:28:17.840Z,9.40
2023-01-13T13:30:57.427Z,9.40
2023-01-13T13:33:50.679Z,9.40
2023-01-13T13:36:41.284Z,9.40
2023-01-13T13:39:39.693Z,9.50
2023-01-13T13:42:32.199Z,9.50
2023-01-13T13:45:19.950Z,9.70
2023-01-13T13:47:48.493Z,9.60
2023-01-13T13:50:19.827Z,9.60
2023-01-13T13:52:55.249Z,9.60
2023-01-13T13:55:25.349Z,9.60
2023-01-13T13:57:55.325Z,9.60
2023-01-13T14:00:30.421Z,9.60
2023-01-13T14:03:01.162Z,9.60
2023-01-13T14:05:32.084Z,9.50
2023-01-13T14:08:03.165Z,9.40
2023-01-13T14:10:34.168Z,9.20
2023-01-13T14:13:04.040Z,8.90
2023-01-13T14:15:35.789Z,8.60
2023-01-13T14:18:06.042Z,8.10
2023-01-13T14:20:35.650Z,7.70
2023-01-13T14:23:06.037Z,7.60
2023-01-13T14:25:39.644Z,7.40
2023-01-13T14:28:33.443Z,7.30
2023-01-13T14:31:02.323Z,7.30
2023-01-13T14:33:35.329Z,7.20
2023-01-13T14:36:08.503Z,7.10
2023-01-13T14:38:38.008Z,7.00
2023-01-13T14:41:20.063Z,6.80
2023-01-13T14:43:49.452Z,6.70
2023-01-13T14:46:21.003Z,6.70
2023-01-13T14:48:51.345Z,6.70
2023-01-13T14:51:26.418Z,6.70
2023-01-13T14:53:57.251Z,6.60
2023-01-13T14:56:47.199Z,6.50
2023-01-13T14:59:51.733Z,6.50
2023-01-13T15:02:45.156Z,6.50
2023-01-13T15:05:42.740Z,6.30
2023-01-13T15:08:36.947Z,6.30
2023-01-13T15:11:08.211Z,6.40
2023-01-13T15:13:48.850Z,6.40
2023-01-13T15:16:24.728Z,6.40
2023-01-13T15:18:53.527Z,6.30
2023-01-13T15:21:22.018Z,6.40
2023-01-13T15:23:50.281Z,6.40
2023-01-13T15:26:23.354Z,6.50
2023-01-13T15:28:52.560Z,6.50
2023-01-13T15:31:21.558Z,6.40
2023-01-13T15:33:53.574Z,6.40
2023-01-13T15:36:25.797Z,6.30
2023-01-13T15:38:53.927Z,6.20
2023-01-13T15:41:37.643Z,6.10
2023-01-13T15:44:23.577Z,6.10
2023-01-13T15:46:53.303Z,6.20
2023-01-13T15:49:26.405Z,6.10
2023-01-13T15:51:56.426Z,6.20
2023-01-13T15:54:27.235Z,6.40
2023-01-13T15:56:56.603Z,6.10
2023-01-13T15:59:27.810Z,5.90
2023-01-13T16:01:55.848Z,5.90
2023-01-13T16:04:23.814Z,5.80
2023-01-13T16:06:51.927Z,5.80
2023-01-13T16:09:19.975Z,5.80
2023-01-13T16:11:48.038Z,5.90
2023-01-13T16:14:17.387Z,5.80
2023-01-13T16:16:45.407Z,6.10
2023-01-13T16:19:13.803Z,6.00
2023-01-13T16:21:42.314Z,6.10
2023-01-13T16:24:10.404Z,6.20
2023-01-13T16:26:38.955Z,6.10
2023-01-13T16:29:08.062Z,5.90
2023-01-13T16:31:37.806Z,6.00
2023-01-13T16:34:07.028Z,6.00
2023-01-13T16:36:36.996Z,6.20
2023-01-13T16:39:06.293Z,6.00
2023-01-13T16:41:34.980Z,5.90
2023-01-13T16:44:06.077Z,5.90
2023-01-13T16:46:34.696Z,5.80
2023-01-13T16:49:06.697Z,5.80
2023-01-13T16:51:34.881Z,5.70
2023-01-13T16:54:02.895Z,5.90
2023-01-13T16:56:32.539Z,5.80
2023-01-13T16:59:04.535Z,5.80
2023-01-13T17:01:35.991Z,5.80
2023-01-13T17:04:06.128Z,5.80
2023-01-13T17:06:38.651Z,5.80
2023-01-13T17:09:08.670Z,5.80
2023-01-13T17:11:36.696Z,5.90
2023-01-13T17:14:18.955Z,5.80
2023-01-13T17:16:47.765Z,5.90
2023-01-13T17:19:18.417Z,6.10
2023-01-13T17:21:47.327Z,6.20
2023-01-13T17:24:15.713Z,6.40
2023-01-13T17:26:47.553Z,6.60
2023-01-13T17:29:17.838Z,6.60
2023-01-13T17:31:46.505Z,6.70
2023-01-13T17:34:15.264Z,6.80
2023-01-13T17:36:44.790Z,6.80
2023-01-13T17:39:16.933Z,6.80
2023-01-13T17:41:45.365Z,6.80
2023-01-13T17:44:14.813Z,6.80
2023-01-13T17:46:43.010Z,6.90
2023-01-13T17:49:11.789Z,6.90
2023-01-13T17:51:39.941Z,6.90
2023-01-13T17:54:11.931Z,6.90
2023-01-13T17:56:40.370Z,6.90
2023-01-13T17:59:10.376Z,6.90
2023-01-13T18:01:39.250Z,6.90
2023-01-13T18:04:07.899Z,6.90
2023-01-13T18:06:36.031Z,6.80
2023-01-13T18:09:04.038Z,7.00
2023-01-13T18:11:33.308Z,7.10
2023-01-13T18:14:01.273Z,7.10
2023-01-13T18:16:31.020Z,6.90
2023-01-13T18:19:15.046Z,6.80
2023-01-13T18:22:00.897Z,6.80
2023-01-13T18:24:46.507Z,6.80
2023-01-13T18:27:22.811Z,6.70
2023-01-13T18:29:54.535Z,6.70
2023-01-13T18:32:24.681Z,6.60
2023-01-13T18:35:04.762Z,6.50
2023-01-13T18:37:35.669Z,6.40
2023-01-13T18:40:04.328Z,6.50
2023-01-13T18:42:51.170Z,6.40
2023-01-13T18:45:19.810Z,6.40
2023-01-13T18:47:47.840Z,6.40
2023-01-13T18:50:17.157Z,6.20
2023-01-13T18:52:45.290Z,6.30
2023-01-13T18:55:13.436Z,6.20
2023-01-13T18:57:42.782Z,6.30
2023-01-13T19:00:12.961Z,6.20
2023-01-13T19:02:41.330Z,6.00
2023-01-13T19:05:10.213Z,6.00
2023-01-13T19:07:39.063Z,6.00
2023-01-13T19:10:09.793Z,6.10
2023-01-13T19:12:37.828Z,6.10
2023-01-13T19:15:08.866Z,6.10
2023-01-13T19:17:37.067Z,6.00
2023-01-13T19:20:06.051Z,5.90
2023-01-13T19:22:36.292Z,5.90
2023-01-13T19:25:05.711Z,5.80
2023-01-13T19:27:33.780Z,5.80
2023-01-13T19:30:03.242Z,5.80
2023-01-13T19:32:33.974Z,5.80
2023-01-13T19:35:02.053Z,5.90
2023-01-13T19:37:31.482Z,5.90
2023-01-13T19:40:00.076Z,5.90
2023-01-13T19:42:45.793Z,5.90
2023-01-13T19:45:31.501Z,5.90
2023-01-13T19:48:02.296Z,5.80
2023-01-13T19:50:30.603Z,5.70
2023-01-13T19:52:58.809Z,5.70
2023-01-13T19:55:26.855Z,5.70
2023-01-13T19:57:54.818Z,5.70
2023-01-13T20:00:23.799Z,5.90
2023-01-13T20:02:53.119Z,6.00
2023-01-13T20:05:25.937Z,6.00
2023-01-13T20:07:54.299Z,6.00
2023-01-13T20:10:23.666Z,6.10
2023-01-13T20:12:52.038Z,6.30
2023-01-13T20:15:20.041Z,6.40
2023-01-13T20:17:48.073Z,6.40
2023-01-13T20:20:16.830Z,6.50
2023-01-13T20:22:46.296Z,6.40
2023-01-13T20:25:16.874Z,6.40
2023-01-13T20:27:45.228Z,6.40
2023-01-13T20:30:14.530Z,6.50
2023-01-13T20:32:43.609Z,6.50
2023-01-13T20:35:12.614Z,6.60
2023-01-13T20:37:41.866Z,6.50
2023-01-13T20:40:14.641Z,6.50
2023-01-13T20:42:45.079Z,6.40
2023-01-13T20:45:17.478Z,6.20
2023-01-13T20:47:46.495Z,6.30
2023-01-13T20:50:14.987Z,6.30
2023-01-13T20:52:43.161Z,6.30
2023-01-13T20:55:13.748Z,6.20
2023-01-13T20:57:41.906Z,6.10
2023-01-13T21:00:11.486Z,5.90
2023-01-13T21:02:41.078Z,5.80
2023-01-13T21:05:09.813Z,5.70
2023-01-13T21:07:37.899Z,5.80
2023-01-13T21:10:06.507Z,5.90
2023-01-13T21:12:53.228Z,6.10
2023-01-13T21:15:22.034Z,6.10
2023-01-13T21:18:10.128Z,6.00
2023-01-13T21:20:39.379Z,5.80
2023-01-13T21:23:08.085Z,5.70
2023-01-13T21:25:37.226Z,5.70
2023-01-13T21:28:07.717Z,5.80
2023-01-13T21:30:36.187Z,5.70
2023-01-13T21:33:06.114Z,5.50
2023-01-13T21:35:34.613Z,5.40
2023-01-13T21:38:02.623Z,5.30
2023-01-13T21:40:30.573Z,5.30
2023-01-13T21:43:15.894Z,5.10
2023-01-13T21:46:04.783Z,5.10
2023-01-13T21:48:33.592Z,5.20
2023-01-13T21:51:02.117Z,5.40
2023-01-13T21:53:30.329Z,5.60
2023-01-13T21:55:58.349Z,5.70
2023-01-13T21:58:26.348Z,5.80
2023-01-13T22:00:56.049Z,5.70
2023-01-13T22:03:24.090Z,5.70
2023-01-13T22:05:55.814Z,5.80
2023-01-13T22:08:23.798Z,5.70
2023-01-13T22:11:00.965Z,5.70
2023-01-13T22:13:47.920Z,5.70
2023-01-13T22:16:18.127Z,5.70
2023-01-13T22:18:46.114Z,5.60
2023-01-13T22:21:14.271Z,5.40
2023-01-13T22:23:42.340Z,5.30
2023-01-13T22:26:10.572Z,5.30
2023-01-13T22:28:42.859Z,5.40
2023-01-13T22:31:12.163Z,5.40
2023-01-13T22:33:42.802Z,5.30
2023-01-13T22:36:11.366Z,5.20
2023-01-13T22:38:39.835Z,5.10
2023-01-13T22:41:10.062Z,4.90
2023-01-13T22:43:38.948Z,4.80
2023-01-13T22:46:08.796Z,4.80
2023-01-13T22:48:37.118Z,4.90
2023-01-13T22:51:07.344Z,4.80
2023-01-13T22:53:35.737Z,4.70
2023-01-13T22:56:04.035Z,4.60
2023-01-13T22:58:32.648Z,4.60
2023-01-13T23:01:10.622Z,4.50
2023-01-13T23:03:38.883Z,4.50
2023-01-13T23:06:08.603Z,4.50
2023-01-13T23:08:36.737Z,4.40
2023-01-13T23:11:06.526Z,4.40
2023-01-13T23:13:34.882Z,4.40
2023-01-13T23:16:04.465Z,4.40
2023-01-13T23:18:32.932Z,4.50
2023-01-13T23:21:04.837Z,4.50
2023-01-13T23:23:35.036Z,4.50
2023-01-13T23:26:04.017Z,4.40
2023-01-13T23:28:33.194Z,4.20
2023-01-13T23:31:01.542Z,4.20
2023-01-13T23:33:29.527Z,4.10
2023-01-13T23:35:57.624Z,4.20
2023-01-13T23:38:25.747Z,4.30
2023-01-13T23:40:55.838Z,4.40
2023-01-13T23:43:26.173Z,4.60
2023-01-13T23:46:01.729Z,4.70
2023-01-13T23:48:29.773Z,4.80
2023-01-13T23:50:58.868Z,4.60
2023-01-13T23:53:31.982Z,4.70
2023-01-13T23:56:02.186Z,4.60
2023-01-13T23:58:30.964Z,4.40
